createdAt,value
2022-10-22T00:02:07.739Z,15.35
2022-10-22T00:04:51.413Z,15.41
2022-10-22T00:07:35.408Z,15.36
2022-10-22T00:10:19.098Z,15.41
2022-10-22T00:13:02.489Z,15.42
2022-10-22T00:15:45.919Z,15.40
2022-10-22T00:18:29.320Z,15.21
2022-10-22T00:21:12.939Z,15.46
2022-10-22T00:23:56.894Z,15.45
2022-10-22T00:26:40.431Z,15.38
2022-10-22T00:29:23.862Z,15.32
2022-10-22T00:32:07.295Z,15.30
2022-10-22T00:34:50.688Z,15.34
2022-10-22T00:37:34.103Z,15.04
2022-10-22T00:40:17.569Z,15.02
2022-10-22T00:43:00.964Z,15.17
2022-10-22T00:45:45.357Z,14.98
2022-10-22T00:48:33.704Z,15.17
2022-10-22T00:51:17.224Z,15.24
2022-10-22T00:54:08.815Z,14.90
2022-10-22T00:56:52.190Z,14.85
2022-10-22T00:59:37.426Z,14.72
2022-10-22T01:02:20.844Z,14.70
2022-10-22T01:05:04.885Z,14.83
2022-10-22T01:07:53.107Z,14.68
2022-10-22T01:11:04.047Z,14.73
2022-10-22T01:13:59.464Z,14.54
2022-10-22T01:17:08.380Z,14.51
2022-10-22T01:20:29.851Z,14.61
2022-10-22T01:23:25.070Z,14.63
2022-10-22T01:26:45.458Z,14.76
2022-10-22T01:29:51.645Z,14.87
2022-10-22T01:32:50.700Z,14.63
2022-10-22T01:35:45.024Z,14.87
2022-10-22T01:38:30.793Z,14.55
2022-10-22T01:41:14.374Z,14.80
2022-10-22T01:43:57.763Z,14.81
2022-10-22T01:46:41.275Z,14.69
2022-10-22T01:49:39.832Z,15.06
2022-10-22T01:53:04.405Z,15.08
2022-10-22T01:56:09.688Z,14.97
2022-10-22T01:59:12.127Z,15.14
2022-10-22T02:02:17.467Z,15.07
2022-10-22T02:05:22.510Z,14.95
2022-10-22T02:08:11.333Z,14.86
2022-10-22T02:10:56.117Z,14.53
2022-10-22T02:13:49.646Z,14.53
2022-10-22T02:16:44.330Z,15.19
2022-10-22T02:19:50.229Z,15.20
2022-10-22T02:22:34.375Z,14.89
2022-10-22T02:25:18.043Z,14.95
2022-10-22T02:28:16.820Z,15.03
2022-10-22T02:31:15.757Z,15.18
2022-10-22T02:34:08.853Z,14.96
2022-10-22T02:36:54.290Z,15.12
2022-10-22T02:39:39.784Z,15.12
2022-10-22T02:42:28.285Z,15.33
2022-10-22T02:45:11.725Z,14.83
2022-10-22T02:47:55.124Z,14.94
2022-10-22T02:50:38.470Z,14.68
2022-10-22T02:53:21.820Z,14.79
2022-10-22T02:56:05.839Z,14.89
2022-10-22T02:58:49.229Z,14.54
2022-10-22T03:01:32.664Z,14.57
2022-10-22T03:04:16.047Z,14.36
2022-10-22T03:06:59.652Z,14.24
2022-10-22T03:09:43.065Z,13.76
2022-10-22T03:12:26.511Z,14.27
2022-10-22T03:15:10.359Z,14.68
2022-10-22T03:17:53.698Z,15.05
2022-10-22T03:20:37.068Z,15.16
2022-10-22T03:23:20.553Z,15.20
2022-10-22T03:26:05.805Z,15.23
2022-10-22T03:28:49.401Z,15.07
2022-10-22T03:31:32.811Z,15.08
2022-10-22T03:34:16.174Z,15.17
2022-10-22T03:37:02.007Z,15.37
2022-10-22T03:39:45.546Z,15.32
2022-10-22T03:42:28.984Z,15.12
2022-10-22T03:45:12.614Z,15.12
2022-10-22T03:47:56.010Z,15.04
2022-10-22T03:50:39.387Z,15.16
2022-10-22T03:53:22.774Z,15.31
2022-10-22T03:56:10.453Z,15.18
2022-10-22T03:58:58.091Z,15.24
2022-10-22T04:01:41.430Z,14.30
2022-10-22T04:04:24.825Z,14.87
2022-10-22T04:07:08.848Z,15.04
2022-10-22T04:09:52.207Z,14.70
2022-10-22T04:12:35.549Z,14.96
2022-10-22T04:15:18.942Z,15.03
2022-10-22T04:18:02.357Z,14.73
2022-10-22T04:20:47.009Z,14.52
2022-10-22T04:23:30.631Z,14.24
2022-10-22T04:26:14.979Z,14.41
2022-10-22T04:28:58.337Z,14.30
2022-10-22T04:31:41.798Z,14.40
2022-10-22T04:34:28.772Z,14.56
2022-10-22T04:37:12.773Z,14.21
2022-10-22T04:39:58.130Z,14.41
2022-10-22T04:42:41.822Z,14.13
2022-10-22T04:45:25.182Z,13.90
2022-10-22T04:48:08.560Z,13.99
2022-10-22T04:50:52.020Z,14.14
2022-10-22T04:53:38.174Z,14.08
2022-10-22T04:56:28.751Z,13.89
2022-10-22T04:59:15.213Z,13.92
2022-10-22T05:01:58.576Z,14.11
2022-10-22T05:04:44.560Z,14.67
2022-10-22T05:07:27.942Z,14.91
2022-10-22T05:10:11.283Z,14.95
2022-10-22T05:12:54.606Z,14.70
2022-10-22T05:15:37.958Z,14.78
2022-10-22T05:18:22.649Z,14.61
2022-10-22T05:21:15.740Z,14.52
2022-10-22T05:24:00.193Z,14.67
2022-10-22T05:26:43.550Z,14.86
2022-10-22T05:29:27.861Z,13.75
2022-10-22T05:32:11.257Z,14.26
2022-10-22T05:34:54.597Z,14.49
2022-10-22T05:37:38.185Z,14.67
2022-10-22T05:40:30.603Z,14.16
2022-10-22T05:43:14.624Z,14.30
2022-10-22T05:46:08.383Z,14.57
2022-10-22T05:48:59.323Z,14.36
2022-10-22T05:51:42.777Z,14.56
2022-10-22T05:54:26.210Z,14.58
2022-10-22T05:57:09.561Z,14.21
2022-10-22T05:59:52.919Z,14.55
2022-10-22T06:02:36.394Z,14.45
2022-10-22T06:05:19.793Z,13.52
2022-10-22T06:08:04.410Z,14.12
2022-10-22T06:10:47.848Z,14.18
2022-10-22T06:13:32.831Z,14.02
2022-10-22T06:16:16.243Z,13.83
2022-10-22T06:19:02.180Z,13.47
2022-10-22T06:21:46.330Z,13.96
2022-10-22T06:24:30.041Z,14.02
2022-10-22T06:27:13.411Z,14.33
2022-10-22T06:29:56.820Z,14.49
2022-10-22T06:32:41.455Z,14.48
2022-10-22T06:35:25.034Z,14.02
2022-10-22T06:38:08.493Z,14.13
2022-10-22T06:40:51.864Z,13.99
2022-10-22T06:43:35.295Z,13.98
2022-10-22T06:46:21.623Z,14.10
2022-10-22T06:49:05.874Z,14.11
2022-10-22T06:51:53.692Z,14.08
2022-10-22T06:54:37.104Z,13.82
2022-10-22T06:57:20.432Z,14.12
2022-10-22T07:00:06.905Z,13.82
2022-10-22T07:02:56.471Z,13.95
2022-10-22T07:05:42.644Z,13.53
2022-10-22T07:08:25.992Z,14.09
2022-10-22T07:11:17.157Z,14.44
2022-10-22T07:14:01.031Z,14.69
2022-10-22T07:16:45.802Z,14.60
2022-10-22T07:19:29.286Z,14.52
2022-10-22T07:22:12.688Z,14.56
2022-10-22T07:24:56.089Z,14.64
2022-10-22T07:27:39.625Z,14.46
2022-10-22T07:30:23.221Z,14.39
2022-10-22T07:33:07.550Z,14.95
2022-10-22T07:35:50.973Z,14.85
2022-10-22T07:38:35.621Z,14.90
2022-10-22T07:41:18.995Z,15.04
2022-10-22T07:44:02.590Z,14.70
2022-10-22T07:46:48.817Z,14.89
2022-10-22T07:49:32.547Z,14.67
2022-10-22T07:52:15.970Z,14.57
2022-10-22T07:54:59.413Z,14.57
2022-10-22T07:57:42.891Z,14.48
2022-10-22T08:00:26.371Z,14.50
2022-10-22T08:03:14.577Z,14.50
2022-10-22T08:05:58.139Z,14.44
2022-10-22T08:08:43.549Z,14.33
2022-10-22T08:11:27.057Z,14.05
2022-10-22T08:14:10.422Z,14.48
2022-10-22T08:16:53.811Z,14.50
2022-10-22T08:19:37.703Z,14.37
2022-10-22T08:22:21.183Z,14.63
2022-10-22T08:25:06.083Z,14.85
2022-10-22T08:27:49.469Z,14.83
2022-10-22T08:30:34.054Z,14.88
2022-10-22T08:33:17.523Z,14.75
2022-10-22T08:36:00.971Z,14.72
2022-10-22T08:38:44.410Z,14.87
2022-10-22T08:41:27.897Z,15.06
2022-10-22T08:44:24.955Z,15.14
2022-10-22T08:47:45.516Z,14.84
2022-10-22T08:50:51.153Z,14.97
2022-10-22T08:54:07.167Z,14.86
2022-10-22T08:57:41.642Z,14.85
2022-10-22T09:00:40.514Z,14.87
2022-10-22T09:03:44.969Z,15.37
2022-10-22T09:06:32.156Z,15.00
2022-10-22T09:09:18.576Z,15.06
2022-10-22T09:12:07.319Z,14.84
2022-10-22T09:14:51.407Z,15.05
2022-10-22T09:17:54.787Z,14.83
2022-10-22T09:20:58.262Z,14.78
2022-10-22T09:24:11.653Z,14.87
2022-10-22T09:26:57.823Z,15.08
2022-10-22T09:29:42.162Z,15.15
2022-10-22T09:32:25.904Z,15.19
2022-10-22T09:35:13.421Z,15.28
2022-10-22T09:37:57.265Z,15.42
2022-10-22T09:40:54.521Z,15.70
2022-10-22T09:43:38.005Z,15.66
2022-10-22T09:46:27.045Z,15.52
2022-10-22T09:49:19.406Z,15.68
2022-10-22T09:52:03.524Z,15.75
2022-10-22T09:54:52.566Z,15.42
2022-10-22T09:57:38.765Z,15.45
2022-10-22T10:00:26.039Z,15.57
2022-10-22T10:03:23.617Z,15.73
2022-10-22T10:06:08.031Z,15.85
2022-10-22T10:08:51.680Z,15.55
2022-10-22T10:11:54.055Z,15.92
2022-10-22T10:15:13.535Z,16.13
2022-10-22T10:18:26.266Z,16.41
2022-10-22T10:21:44.806Z,16.15
2022-10-22T10:24:43.375Z,16.53
2022-10-22T10:28:13.614Z,16.51
2022-10-22T10:31:37.513Z,15.97
2022-10-22T10:34:59.805Z,16.19
2022-10-22T10:38:04.107Z,16.23
2022-10-22T10:41:16.080Z,16.09
2022-10-22T10:44:37.198Z,16.16
2022-10-22T10:47:56.861Z,16.37
2022-10-22T10:51:01.405Z,16.39
2022-10-22T10:54:28.824Z,16.80
2022-10-22T10:57:44.499Z,16.54
2022-10-22T11:00:39.592Z,16.54
2022-10-22T11:04:01.136Z,16.59
2022-10-22T11:06:46.764Z,16.88
2022-10-22T11:09:48.250Z,16.89
2022-10-22T11:12:41.709Z,17.01
2022-10-22T11:15:37.004Z,16.62
2022-10-22T11:18:42.088Z,16.51
2022-10-22T11:21:57.793Z,16.75
2022-10-22T11:25:00.221Z,16.36
2022-10-22T11:28:11.658Z,16.56
2022-10-22T11:31:09.958Z,16.46
2022-10-22T11:34:34.791Z,16.84
2022-10-22T11:37:19.660Z,17.15
2022-10-22T11:40:14.818Z,17.58
2022-10-22T11:43:05.640Z,17.50
2022-10-22T11:45:56.995Z,17.28
2022-10-22T11:48:40.441Z,17.65
2022-10-22T11:51:39.177Z,17.78
2022-10-22T11:54:42.876Z,17.61
2022-10-22T11:57:39.469Z,17.79
2022-10-22T12:00:46.258Z,17.66
2022-10-22T12:03:32.612Z,18.20
2022-10-22T12:06:16.047Z,18.19
2022-10-22T12:09:06.014Z,18.16
2022-10-22T12:11:51.697Z,18.13
2022-10-22T12:14:58.411Z,17.97
2022-10-22T12:17:43.051Z,18.35
2022-10-22T12:20:28.185Z,18.01
2022-10-22T12:23:13.798Z,17.91
2022-10-22T12:25:57.285Z,17.98
2022-10-22T12:28:41.065Z,18.37
2022-10-22T12:31:24.996Z,18.03
2022-10-22T12:34:23.875Z,18.49
2022-10-22T12:37:07.638Z,18.72
2022-10-22T12:39:51.444Z,18.70
2022-10-22T12:42:35.355Z,19.03
2022-10-22T12:45:19.344Z,18.54
2022-10-22T12:48:16.118Z,18.69
2022-10-22T12:51:02.242Z,18.58
2022-10-22T12:53:54.786Z,18.63
2022-10-22T12:56:38.615Z,18.81
2022-10-22T12:59:37.048Z,19.56
2022-10-22T13:02:24.535Z,19.10
2022-10-22T13:05:39.248Z,18.91
2022-10-22T13:08:29.210Z,18.58
2022-10-22T13:11:12.766Z,19.09
2022-10-22T13:14:04.087Z,19.16
2022-10-22T13:17:15.103Z,19.10
2022-10-22T13:19:58.465Z,18.99
2022-10-22T13:23:00.200Z,19.26
2022-10-22T13:25:44.145Z,19.18
2022-10-22T13:28:30.631Z,19.46
2022-10-22T13:31:20.127Z,19.34
2022-10-22T13:34:11.791Z,19.63
2022-10-22T13:36:57.479Z,19.64
2022-10-22T13:39:40.929Z,19.25
2022-10-22T13:42:24.976Z,19.40
2022-10-22T13:45:09.167Z,19.38
2022-10-22T13:47:54.929Z,19.50
2022-10-22T13:50:39.132Z,19.84
2022-10-22T13:53:26.517Z,19.46
2022-10-22T13:56:20.140Z,19.40
2022-10-22T13:59:03.733Z,19.54
2022-10-22T14:01:47.216Z,19.89
2022-10-22T14:04:30.802Z,19.73
2022-10-22T14:07:17.866Z,19.91
2022-10-22T14:10:01.456Z,19.84
2022-10-22T14:12:50.790Z,19.72
2022-10-22T14:15:38.490Z,19.53
2022-10-22T14:18:28.695Z,19.32
2022-10-22T14:21:15.913Z,19.15
2022-10-22T14:23:59.380Z,19.02
2022-10-22T14:26:42.829Z,19.31
2022-10-22T14:29:26.761Z,19.22
2022-10-22T14:32:21.909Z,19.23
2022-10-22T14:35:05.694Z,19.24
2022-10-22T14:37:49.153Z,19.61
2022-10-22T14:40:32.548Z,19.31
2022-10-22T14:43:23.806Z,19.47
2022-10-22T14:46:07.201Z,19.47
2022-10-22T14:48:50.620Z,19.12
2022-10-22T14:51:34.036Z,19.23
2022-10-22T14:54:18.470Z,19.11
2022-10-22T14:57:05.722Z,19.19
2022-10-22T14:59:49.167Z,19.15
2022-10-22T15:02:32.656Z,19.02
2022-10-22T15:05:17.424Z,19.34
2022-10-22T15:08:00.825Z,18.86
2022-10-22T15:10:44.223Z,18.98
2022-10-22T15:13:29.525Z,19.09
2022-10-22T15:16:16.454Z,18.79
2022-10-22T15:19:00.943Z,18.97
2022-10-22T15:21:44.355Z,19.01
2022-10-22T15:24:27.702Z,19.08
2022-10-22T15:27:14.636Z,19.13
2022-10-22T15:30:00.805Z,19.14
2022-10-22T15:32:44.317Z,18.99
2022-10-22T15:35:28.687Z,18.73
2022-10-22T15:38:12.068Z,18.54
2022-10-22T15:41:07.462Z,18.89
2022-10-22T15:43:50.845Z,18.78
2022-10-22T15:46:35.531Z,18.69
2022-10-22T15:49:19.157Z,18.59
2022-10-22T15:52:03.638Z,18.48
2022-10-22T15:54:47.501Z,18.34
2022-10-22T15:57:30.879Z,17.78
2022-10-22T16:00:14.801Z,17.64
2022-10-22T16:02:58.647Z,17.40
2022-10-22T16:05:49.365Z,17.22
2022-10-22T16:08:33.246Z,17.13
2022-10-22T16:11:16.633Z,17.11
2022-10-22T16:14:01.315Z,17.09
2022-10-22T16:16:49.748Z,17.21
2022-10-22T16:19:33.395Z,17.45
2022-10-22T16:22:16.825Z,17.28
2022-10-22T16:25:00.271Z,17.33
2022-10-22T16:27:43.671Z,17.16
2022-10-22T16:30:27.111Z,17.27
2022-10-22T16:33:11.693Z,17.06
2022-10-22T16:35:55.209Z,17.12
2022-10-22T16:38:38.695Z,16.63
2022-10-22T16:41:25.698Z,16.17
2022-10-22T16:44:10.384Z,16.38
2022-10-22T16:46:53.772Z,16.58
2022-10-22T16:49:37.344Z,16.38
2022-10-22T16:52:20.767Z,16.24
2022-10-22T16:55:04.924Z,15.97
2022-10-22T16:57:53.437Z,15.68
2022-10-22T17:00:37.088Z,16.00
2022-10-22T17:03:22.563Z,16.13
2022-10-22T17:06:09.319Z,16.10
2022-10-22T17:08:53.191Z,15.81
2022-10-22T17:11:39.189Z,15.96
2022-10-22T17:14:24.706Z,16.29
2022-10-22T17:17:08.103Z,16.10
2022-10-22T17:19:51.492Z,16.13
2022-10-22T17:22:35.035Z,15.95
2022-10-22T17:25:36.229Z,16.10
2022-10-22T17:28:19.588Z,15.93
2022-10-22T17:31:28.193Z,16.12
2022-10-22T17:34:16.996Z,15.96
2022-10-22T17:37:00.430Z,15.94
2022-10-22T17:39:43.927Z,16.23
2022-10-22T17:42:28.348Z,16.12
2022-10-22T17:45:11.784Z,16.16
2022-10-22T17:47:57.270Z,16.24
2022-10-22T17:50:43.996Z,16.38
2022-10-22T17:53:29.161Z,16.29
2022-10-22T17:56:18.562Z,15.91
2022-10-22T17:59:02.769Z,16.10
2022-10-22T18:01:47.726Z,16.12
2022-10-22T18:04:34.052Z,16.27
2022-10-22T18:07:17.461Z,16.30
2022-10-22T18:10:00.850Z,16.28
2022-10-22T18:12:44.339Z,16.21
2022-10-22T18:15:27.731Z,16.16
2022-10-22T18:18:13.520Z,16.24
2022-10-22T18:20:57.476Z,16.15
2022-10-22T18:23:40.853Z,16.24
2022-10-22T18:26:26.852Z,15.44
2022-10-22T18:29:16.964Z,15.63
2022-10-22T18:32:00.538Z,15.47
2022-10-22T18:34:43.961Z,15.40
2022-10-22T18:37:27.423Z,15.41
2022-10-22T18:40:14.445Z,15.40
2022-10-22T18:42:58.078Z,15.52
2022-10-22T18:45:46.973Z,15.56
2022-10-22T18:48:30.407Z,15.55
2022-10-22T18:51:15.585Z,15.70
2022-10-22T18:54:05.884Z,15.91
2022-10-22T18:57:03.234Z,16.13
2022-10-22T18:59:46.791Z,15.82
2022-10-22T19:02:30.257Z,15.80
2022-10-22T19:05:13.647Z,15.93
2022-10-22T19:07:57.141Z,16.03
2022-10-22T19:10:40.610Z,16.27
2022-10-22T19:13:25.719Z,16.20
2022-10-22T19:16:18.378Z,15.88
2022-10-22T19:19:05.906Z,16.01
2022-10-22T19:21:49.869Z,15.99
2022-10-22T19:24:33.491Z,15.84
2022-10-22T19:27:18.272Z,15.98
2022-10-22T19:30:02.256Z,15.61
2022-10-22T19:32:46.369Z,15.84
2022-10-22T19:35:29.902Z,15.89
2022-10-22T19:38:13.353Z,15.97
2022-10-22T19:40:56.911Z,15.92
2022-10-22T19:43:41.714Z,15.87
2022-10-22T19:46:28.408Z,15.95
2022-10-22T19:49:11.798Z,15.84
2022-10-22T19:51:55.184Z,15.98
2022-10-22T19:54:40.916Z,15.87
2022-10-22T19:57:24.326Z,15.86
2022-10-22T20:00:08.708Z,15.70
2022-10-22T20:02:53.230Z,15.73
2022-10-22T20:05:38.894Z,15.61
2022-10-22T20:08:22.313Z,15.71
2022-10-22T20:11:08.995Z,15.53
2022-10-22T20:13:52.883Z,15.23
2022-10-22T20:16:36.352Z,14.99
2022-10-22T20:19:19.780Z,15.11
2022-10-22T20:22:03.297Z,14.95
2022-10-22T20:24:46.779Z,14.77
2022-10-22T20:27:30.181Z,15.18
2022-10-22T20:32:58.242Z,15.17
2022-10-22T20:35:42.578Z,14.86
2022-10-22T20:38:26.419Z,14.76
2022-10-22T20:41:21.477Z,14.66
2022-10-22T20:44:04.933Z,15.01
2022-10-22T20:46:48.387Z,14.65
2022-10-22T20:49:33.093Z,14.65
2022-10-22T20:52:16.509Z,14.82
2022-10-22T20:55:00.020Z,14.97
2022-10-22T20:57:43.759Z,15.27
2022-10-22T21:00:27.425Z,15.44
2022-10-22T21:03:11.278Z,15.20
2022-10-22T21:05:54.743Z,15.27
2022-10-22T21:08:38.142Z,15.18
2022-10-22T21:11:23.227Z,15.24
2022-10-22T21:14:11.180Z,15.12
2022-10-22T21:16:54.583Z,15.19
2022-10-22T21:19:38.041Z,15.19
2022-10-22T21:22:21.487Z,15.39
2022-10-22T21:25:05.210Z,15.07
2022-10-22T21:27:48.592Z,15.40
2022-10-22T21:30:32.574Z,15.58
2022-10-22T21:33:16.102Z,15.66
2022-10-22T21:35:59.537Z,15.51
2022-10-22T21:38:43.218Z,15.63
2022-10-22T21:41:26.635Z,15.54
2022-10-22T21:44:10.056Z,15.57
2022-10-22T21:46:53.483Z,15.29
2022-10-22T21:49:36.901Z,15.06
2022-10-22T21:52:20.347Z,15.07
2022-10-22T21:55:03.988Z,15.08
2022-10-22T21:57:47.414Z,15.04
2022-10-22T22:00:30.792Z,15.01
2022-10-22T22:03:14.200Z,14.92
2022-10-22T22:06:04.425Z,14.81
2022-10-22T22:08:48.713Z,14.86
2022-10-22T22:11:32.601Z,14.90
2022-10-22T22:14:16.029Z,14.94
2022-10-22T22:16:59.493Z,15.04
2022-10-22T22:19:43.015Z,14.98
2022-10-22T22:22:26.489Z,14.99
2022-10-22T22:25:10.070Z,15.13
2022-10-22T22:27:53.442Z,14.98
2022-10-22T22:30:36.803Z,15.10
2022-10-22T22:33:20.200Z,15.30
2022-10-22T22:36:03.628Z,15.53
2022-10-22T22:38:47.019Z,15.23
2022-10-22T22:41:30.726Z,15.23
2022-10-22T22:44:14.820Z,15.43
2022-10-22T22:46:58.185Z,15.37
2022-10-22T22:49:41.622Z,15.26
2022-10-22T22:52:25.010Z,15.31
2022-10-22T22:55:09.032Z,15.30
2022-10-22T22:57:52.436Z,15.20
2022-10-22T23:00:35.834Z,15.18
2022-10-22T23:03:19.292Z,15.18
2022-10-22T23:06:02.803Z,15.10
2022-10-22T23:08:52.070Z,14.83
2022-10-22T23:11:35.948Z,14.76
2022-10-22T23:14:20.612Z,14.65
2022-10-22T23:17:03.977Z,14.54
2022-10-22T23:19:47.337Z,14.23
2022-10-22T23:22:30.718Z,14.51
2022-10-22T23:25:14.174Z,14.50
2022-10-22T23:27:57.595Z,14.60
2022-10-22T23:30:44.474Z,14.62
2022-10-22T23:33:27.939Z,14.64
2022-10-22T23:36:12.321Z,14.52
2022-10-22T23:38:55.850Z,14.56
2022-10-22T23:41:39.414Z,14.37
2022-10-22T23:44:23.383Z,14.10
2022-10-22T23:47:06.749Z,14.31
2022-10-22T23:49:50.118Z,14.36
2022-10-22T23:52:33.450Z,14.33
2022-10-22T23:55:16.922Z,14.08
2022-10-22T23:58:00.295Z,14.13
